Terminal Aerodrome Forecast
Issued by NWS Wilmington, NC

Current Version | Previous Version | Text Only | Print | Product List | Glossary On
Versions: 1 2 3 4 5 6 7 8 9 10 11 12 13 14 15
000
FTUS42 KILM 271120
TAFMYR
TAF
KMYR 271120Z 2712/2812 12007KT P6SM SCT200
     FM272100 15012KT P6SM BKN120
     FM280600 16006KT P6SM -RA OVC100
     FM280900 12006KT 4SM -RA BR OVC015=

USA.gov is the U.S. government's official web portal to all federal, state and local government web resources and services.